メインページ
METAR-TAF:

METAR-TAF

空港 :

キング・ハリド軍事都市

Hafar Al-Batin, サウジアラビア

緯度: 27-54N, 経度: 045-32E, 海抜: 413m

METAR: 見つかりません

時間: 04:24 (01:24 UTC)

予報

当レポートは20時間24分前の05:00(UTC)に作成
予報は24日の 06時(UTC)から 24日の 20時(UTC)まで有効
北/北西の風 6kt、最大16ktの突風を伴う
視程: 7000m
高度4000ftの雲はほとんどない

TAF: OEKK 240500Z 2406/2420 33006G16KT 7000 FEW040

4,000以上の空港の気象観測と天気予報(METAR報とTAF報)

利用可能な観測所は地図上に黄色い丸と赤い丸で示す。

丸の上にカーソルを重ねると観測所名を参照できる。

次にクリックすると気象観測と天気予報を参照できる。

マップの切り替え:黒色「×」印の緑ボタンをクリックして拡大、「-」印の緑ボタンをクリックして縮小、緑色の三角印をクリックして隣りの地図に切り替え


METAR-TAF: